»·PEaware :: BASH83 KSBP-KCMA

BASH83 :: KSBP-KCMA

FLIGHT INFORMATION

Flight Status: Arrived
Operator: Unknown
More flights by this operator :: More flights under this callsign
Pilot: Ken Bash (15690)
Aircraft: BEECH AIRCRAFT BARON
(BE58)
More flights by this aircraft type
Origin: KSBP San Luis Co Regl
United States
Destination: KCMA Camarillo
United States
More flights between these airports :: More routes between these airports
Route: WYNNR V25 DEANO
File this flight plan on PilotEdge
Remarks:
Altitude:
(Current/Filed)
7,000ft
Speed:
(Current/Filed)
185kts
Departed: 12-Jun-17 12:38 AM
Arrived: 12-Jun-17 01:16 AM
Distance/Time
Traveled:
98nm/0:37
Distance/Time
To Go:
Arrived

Flight Plot

Page will automatically refresh every two minutes.

Flight plan parsing failed; only flown route is shown


Map Options




Map Legend


Flown Route
Filed Route
Departure Airport
Arrival Airport
Navaid (VOR, NDB)
Fix

Horizontal Profiles

Position Reports

Time Latitude Longitude Heading Altitude Ground
Speed
12-Jun-17 00:16 35.239067 -120.641585 350 184ft 0kts
12-Jun-17 00:17 35.239067 -120.641585 350 184ft 0kts
12-Jun-17 00:18 35.239067 -120.641585 350 184ft 0kts
12-Jun-17 00:19 35.239067 -120.641585 350 184ft 0kts
12-Jun-17 00:20 35.239067 -120.641585 350 184ft 0kts
12-Jun-17 00:21 35.239067 -120.641585 350 184ft 0kts
12-Jun-17 00:22 35.239067 -120.641585 350 184ft 0kts
12-Jun-17 00:23 35.239067 -120.641585 350 184ft 0kts
12-Jun-17 00:24 35.239067 -120.641585 350 184ft 0kts
12-Jun-17 00:25 35.239067 -120.641585 350 184ft 0kts
12-Jun-17 00:26 35.239067 -120.641585 350 184ft 0kts
12-Jun-17 00:27 35.239067 -120.641585 350 184ft 0kts
12-Jun-17 00:28 35.239067 -120.641585 350 184ft 0kts
12-Jun-17 00:29 35.239067 -120.641585 350 184ft 0kts
12-Jun-17 00:30 35.239067 -120.641585 350 184ft 0kts
12-Jun-17 00:31 35.239067 -120.641585 350 184ft 0kts
12-Jun-17 00:32 35.239083 -120.641590 342 184ft 1kts
12-Jun-17 00:33 35.238084 -120.640577 121 188ft 9kts
12-Jun-17 00:34 35.236505 -120.637641 125 199ft 12kts
12-Jun-17 00:35 35.234252 -120.633657 120 211ft 14kts
12-Jun-17 00:36 35.233084 -120.632096 260 212ft 0kts
12-Jun-17 00:37 35.233084 -120.632096 260 212ft 0kts
12-Jun-17 00:38 35.233084 -120.632096 260 212ft 0kts
12-Jun-17 00:39 35.233049 -120.632349 254 212ft 6kts
12-Jun-17 00:40 35.236736 -120.639789 306 201ft 102kts
12-Jun-17 00:41 35.254888 -120.671422 303 1903ft 118kts
12-Jun-17 00:42 35.277440 -120.663152 83 3321ft 132kts
12-Jun-17 00:43 35.256496 -120.621877 98 4357ft 149kts
12-Jun-17 00:44 35.243959 -120.573699 105 5451ft 148kts
12-Jun-17 00:45 35.228668 -120.527613 108 6569ft 144kts
12-Jun-17 00:46 35.211542 -120.478304 109 7026ft 190kts
12-Jun-17 00:47 35.188413 -120.412812 110 7007ft 220kts
12-Jun-17 00:48 35.164140 -120.345065 110 7003ft 217kts
12-Jun-17 00:49 35.140123 -120.277813 110 7002ft 216kts
12-Jun-17 00:50 35.120866 -120.224130 113 7003ft 217kts
12-Jun-17 00:51 35.076826 -120.184598 149 7025ft 219kts
12-Jun-17 00:52 35.032790 -120.152522 149 7031ft 219kts
12-Jun-17 00:53 34.980444 -120.114212 149 7034ft 220kts
12-Jun-17 00:54 34.928216 -120.075925 149 7045ft 219kts
12-Jun-17 00:55 34.876313 -120.037933 149 7027ft 219kts
12-Jun-17 00:56 34.824274 -119.999892 149 7027ft 218kts
12-Jun-17 00:57 34.772650 -119.962211 149 7027ft 218kts
12-Jun-17 00:58 34.720509 -119.924210 149 7036ft 220kts
12-Jun-17 00:59 34.668268 -119.886180 149 7028ft 219kts
12-Jun-17 01:00 34.616153 -119.848321 149 7028ft 218kts
12-Jun-17 01:01 34.564124 -119.810573 149 6956ft 220kts
12-Jun-17 01:02 34.511924 -119.772561 143 6943ft 218kts
12-Jun-17 01:03 34.477657 -119.712915 120 6948ft 216kts
12-Jun-17 01:04 34.445027 -119.652157 121 6948ft 216kts
12-Jun-17 01:05 34.412064 -119.591399 121 6949ft 216kts
12-Jun-17 01:06 34.379020 -119.530709 121 6924ft 217kts
12-Jun-17 01:07 34.345915 -119.470017 121 6922ft 216kts
12-Jun-17 01:08 34.313863 -119.408715 107 6908ft 215kts
12-Jun-17 01:09 34.293236 -119.342965 108 5887ft 202kts
12-Jun-17 01:10 34.273789 -119.281886 108 4825ft 190kts
12-Jun-17 01:11 34.255030 -119.222948 104 3801ft 186kts
12-Jun-17 01:12 34.248234 -119.165943 93 3233ft 166kts
12-Jun-17 01:13 34.243156 -119.113268 93 2544ft 135kts
12-Jun-17 01:14 34.240717 -119.073853 90 1741ft 104kts
12-Jun-17 01:15 34.236349 -119.042251 146 1475ft 103kts
12-Jun-17 01:16 34.213073 -119.053275 269 824ft 112kts
12-Jun-17 01:17 34.213707 -119.086839 270 73ft 83kts
12-Jun-17 01:18 34.211812 -119.095173 87 65ft 10kts
12-Jun-17 01:19 34.211803 -119.090748 89 67ft 11kts
12-Jun-17 01:20 34.210491 -119.089052 111 69ft 2kts
12-Jun-17 01:21 34.210494 -119.088957 70 69ft 0kts
12-Jun-17 01:22 34.210494 -119.088957 70 69ft 0kts
12-Jun-17 01:23 34.210494 -119.088957 70 69ft 0kts
12-Jun-17 01:24 34.210494 -119.088957 70 69ft 0kts
12-Jun-17 01:25 34.210494 -119.088957 70 69ft 0kts
12-Jun-17 01:26 34.210494 -119.088957 70 69ft 0kts
12-Jun-17 01:27 34.210494 -119.088957 70 69ft 0kts
12-Jun-17 01:28 34.210494 -119.088957 70 69ft 0kts

Navigation Log

Ident Type
Flight plan parsing failed, navigation log unavailable